Terminal Aerodrome Forecast
Issued by NWS

Home | Current Version | Previous Version | Text Only | Print | Product List | Glossary On
Versions: 1 2 3 4 5 6 7 8 9 10 11 12 13 14 15 16 17 18
399
FTUS46 KMFR 240625 AAA
TAFRBG
TAF AMD
KRBG 240625Z 2406/2506 33003KT P6SM BKN028 OVC050
     FM241000 00000KT 1/2SM FG OVC002
     FM241700 VRB03KT 3SM BR OVC005
     FM241900 VRB03KT P6SM SCT010 SCT050
     FM250500 00000KT 6SM BR SCT002=

USA.gov is the U.S. government's official web portal to all federal, state and local government web resources and services.